createdAt,value
2022-09-21T00:00:02.846Z,94.15
2022-09-21T00:01:02.893Z,94.04
2022-09-21T00:02:02.870Z,94.04
2022-09-21T00:03:02.813Z,93.94
2022-09-21T00:04:02.807Z,93.94
2022-09-21T00:05:02.783Z,93.94
2022-09-21T00:06:02.763Z,93.94
2022-09-21T00:07:02.753Z,93.84
2022-09-21T00:08:02.738Z,93.84
2022-09-21T00:09:02.732Z,93.84
2022-09-21T00:10:02.760Z,93.73
2022-09-21T00:11:02.710Z,93.73
2022-09-21T00:12:02.733Z,93.73
2022-09-21T00:13:02.710Z,93.73
2022-09-21T00:14:02.691Z,93.84
2022-09-21T00:15:02.645Z,93.84
2022-09-21T00:16:02.641Z,93.94
2022-09-21T00:17:02.641Z,93.98
2022-09-21T00:18:02.607Z,93.98
2022-09-21T00:19:02.609Z,93.98
2022-09-21T00:20:02.579Z,93.98
2022-09-21T00:21:02.593Z,93.98
2022-09-21T00:22:02.578Z,94.09
2022-09-21T00:23:02.587Z,94.09
2022-09-21T00:24:02.539Z,94.19
2022-09-21T00:25:02.548Z,94.19
2022-09-21T00:26:02.496Z,94.19
2022-09-21T00:27:02.511Z,94.29
2022-09-21T00:28:02.476Z,94.29
2022-09-21T00:29:02.511Z,94.40
2022-09-21T00:30:02.444Z,94.50
2022-09-21T00:31:02.507Z,94.50
2022-09-21T00:32:02.463Z,94.50
2022-09-21T00:33:02.425Z,94.50
2022-09-21T00:34:02.434Z,94.40
2022-09-21T00:35:02.397Z,94.29
2022-09-21T00:36:02.424Z,94.09
2022-09-21T00:37:02.366Z,93.98
2022-09-21T00:38:02.369Z,93.98
2022-09-21T00:39:02.380Z,93.98
2022-09-21T00:40:02.404Z,93.98
2022-09-21T00:41:02.364Z,94.03
2022-09-21T00:42:02.282Z,94.23
2022-09-21T00:43:02.295Z,94.34
2022-09-21T00:44:02.302Z,94.44
2022-09-21T00:45:02.323Z,94.54
2022-09-21T00:46:02.337Z,94.65
2022-09-21T00:47:02.263Z,94.65
2022-09-21T00:48:02.230Z,94.75
2022-09-21T00:49:02.233Z,94.75
2022-09-21T00:50:02.211Z,94.85
2022-09-21T00:51:02.298Z,94.85
2022-09-21T00:52:02.162Z,94.85
2022-09-21T00:53:02.184Z,94.85
2022-09-21T00:54:02.128Z,94.85
2022-09-21T00:55:02.156Z,94.85
2022-09-21T00:56:02.128Z,94.85
2022-09-21T00:57:02.109Z,94.85
2022-09-21T00:58:02.087Z,94.85
2022-09-21T00:59:02.080Z,94.85
2022-09-21T01:00:02.066Z,94.85
2022-09-21T01:01:02.113Z,94.85
2022-09-21T01:02:02.070Z,94.85
2022-09-21T01:03:02.093Z,94.75
2022-09-21T01:04:02.016Z,94.65
2022-09-21T01:05:02.003Z,94.65
2022-09-21T01:06:02.002Z,94.75
2022-09-21T01:07:01.995Z,94.85
2022-09-21T01:08:01.994Z,94.85
2022-09-21T01:09:01.992Z,94.85
2022-09-21T01:10:01.971Z,94.96
2022-09-21T01:11:01.929Z,94.96
2022-09-21T01:12:01.925Z,94.96
2022-09-21T01:13:01.893Z,94.85
2022-09-21T01:14:01.888Z,94.85
2022-09-21T01:15:01.911Z,94.85
2022-09-21T01:16:01.927Z,94.85
2022-09-21T01:17:01.850Z,94.85
2022-09-21T01:18:01.829Z,94.85
2022-09-21T01:19:01.824Z,94.85
2022-09-21T01:20:01.820Z,94.85
2022-09-21T01:21:01.799Z,94.96
2022-09-21T01:22:01.798Z,94.96
2022-09-21T01:23:01.767Z,94.96
2022-09-21T01:24:01.775Z,94.96
2022-09-21T01:25:01.758Z,94.96
2022-09-21T01:26:01.718Z,94.96
2022-09-21T01:27:01.717Z,94.96
2022-09-21T01:28:01.744Z,94.96
2022-09-21T01:29:01.776Z,94.96
2022-09-21T01:30:01.665Z,95.06
2022-09-21T01:31:01.675Z,95.06
2022-09-21T01:32:01.643Z,95.06
2022-09-21T01:33:01.655Z,95.10
2022-09-21T01:34:01.615Z,95.21
2022-09-21T01:35:01.615Z,95.17
2022-09-21T01:36:01.663Z,95.21
2022-09-21T01:37:01.593Z,95.21
2022-09-21T01:38:01.597Z,95.21
2022-09-21T01:39:01.623Z,95.21
2022-09-21T01:40:01.645Z,95.31
2022-09-21T01:41:01.562Z,95.31
2022-09-21T01:42:01.549Z,95.42
2022-09-21T01:43:01.579Z,95.52
2022-09-21T01:44:01.557Z,95.57
2022-09-21T01:45:01.521Z,95.57
2022-09-21T01:46:01.512Z,95.52
2022-09-21T01:47:01.470Z,95.42
2022-09-21T01:48:01.450Z,95.42
2022-09-21T01:49:01.449Z,95.42
2022-09-21T01:50:01.402Z,95.42
2022-09-21T01:51:01.419Z,95.52
2022-09-21T01:52:01.389Z,95.52
2022-09-21T01:53:01.385Z,95.62
2022-09-21T01:54:01.355Z,95.62
2022-09-21T01:55:01.377Z,95.73
2022-09-21T01:56:01.448Z,95.73
2022-09-21T01:57:01.357Z,95.83
2022-09-21T01:58:01.306Z,95.73
2022-09-21T01:59:01.328Z,95.83
2022-09-21T02:00:01.295Z,95.83
2022-09-21T02:01:01.335Z,95.83
2022-09-21T02:02:01.346Z,95.83
2022-09-21T02:03:01.264Z,95.83
2022-09-21T02:04:01.237Z,95.83
2022-09-21T02:05:01.212Z,95.83
2022-09-21T02:06:01.233Z,95.73
2022-09-21T02:07:01.204Z,95.73
2022-09-21T02:08:01.203Z,95.83
2022-09-21T02:09:01.174Z,95.83
2022-09-21T02:10:01.151Z,95.94
2022-09-21T02:11:01.172Z,96.03
2022-09-21T02:12:01.124Z,96.03
2022-09-21T02:13:01.142Z,96.14
2022-09-21T02:14:01.101Z,96.14
2022-09-21T02:15:01.080Z,96.24
2022-09-21T02:16:01.113Z,96.24
2022-09-21T02:17:01.100Z,96.34
2022-09-21T02:18:01.097Z,96.34
2022-09-21T02:19:01.039Z,96.34
2022-09-21T02:20:01.019Z,96.34
2022-09-21T02:21:01.013Z,96.34
2022-09-21T02:22:01.039Z,96.24
2022-09-21T02:23:00.988Z,96.24
2022-09-21T02:24:00.969Z,96.14
2022-09-21T02:25:00.947Z,96.14
2022-09-21T02:26:00.940Z,96.14
2022-09-21T02:27:00.941Z,96.14
2022-09-21T02:28:00.967Z,96.14
2022-09-21T02:29:00.906Z,96.14
2022-09-21T02:30:00.896Z,96.14
2022-09-21T02:31:00.918Z,96.24
2022-09-21T02:32:00.873Z,96.24
2022-09-21T02:33:00.876Z,96.24
2022-09-21T02:34:00.880Z,96.14
2022-09-21T02:35:00.824Z,96.14
2022-09-21T02:36:00.833Z,96.14
2022-09-21T02:37:00.823Z,96.14
2022-09-21T02:38:00.783Z,96.14
2022-09-21T02:39:00.792Z,96.14
2022-09-21T02:40:00.836Z,96.14
2022-09-21T02:41:00.760Z,96.14
2022-09-21T02:42:00.772Z,96.14
2022-09-21T02:43:00.712Z,96.14
2022-09-21T02:44:00.751Z,96.03
2022-09-21T02:45:00.729Z,96.03
2022-09-21T02:46:00.702Z,95.94
2022-09-21T02:47:00.666Z,95.83
2022-09-21T02:48:00.670Z,95.73
2022-09-21T02:49:00.661Z,95.73
2022-09-21T02:50:00.630Z,95.67
2022-09-21T02:51:00.648Z,95.67
2022-09-21T02:52:00.642Z,95.67
2022-09-21T02:53:00.585Z,95.67
2022-09-21T02:54:00.608Z,95.77
2022-09-21T02:55:00.583Z,95.77
2022-09-21T02:56:00.590Z,95.87
2022-09-21T02:57:00.539Z,95.87
2022-09-21T02:58:00.566Z,95.87
2022-09-21T02:59:00.534Z,95.98
2022-09-21T03:00:00.496Z,95.98
2022-09-21T03:01:00.573Z,96.08
2022-09-21T03:02:00.686Z,96.08
2022-09-21T03:03:00.465Z,96.19
2022-09-21T03:04:00.475Z,96.14
2022-09-21T03:05:00.463Z,96.19
2022-09-21T03:06:00.427Z,96.19
2022-09-21T03:07:00.432Z,96.19
2022-09-21T03:08:00.403Z,96.19
2022-09-21T03:09:00.392Z,96.19
2022-09-21T03:10:00.378Z,96.29
2022-09-21T03:11:00.377Z,96.29
2022-09-21T03:12:00.404Z,96.39
2022-09-21T03:13:00.384Z,96.39
2022-09-21T03:14:00.311Z,96.39
2022-09-21T03:15:00.329Z,96.49
2022-09-21T03:16:00.446Z,96.49
2022-09-21T03:17:00.288Z,96.59
2022-09-21T03:18:00.289Z,96.59
2022-09-21T03:19:00.280Z,96.70
2022-09-21T03:20:00.256Z,96.59
2022-09-21T03:21:00.218Z,96.70
2022-09-21T03:22:00.241Z,96.70
2022-09-21T03:23:00.229Z,96.59
2022-09-21T03:24:00.197Z,96.59
2022-09-21T03:25:00.204Z,96.49
2022-09-21T03:26:00.186Z,96.59
2022-09-21T03:27:00.136Z,96.49
2022-09-21T03:28:00.146Z,96.59
2022-09-21T03:29:00.157Z,96.59
2022-09-21T03:30:02.353Z,96.59
2022-09-21T03:31:00.172Z,96.59
2022-09-21T03:32:00.098Z,96.49
2022-09-21T03:33:00.079Z,96.49
2022-09-21T03:34:00.077Z,96.49
2022-09-21T03:35:00.034Z,96.49
2022-09-21T03:36:00.046Z,96.39
2022-09-21T03:37:00.011Z,96.29
2022-09-21T03:38:00.023Z,96.19
2022-09-21T03:38:59.993Z,96.19
2022-09-21T03:40:00.047Z,96.08
2022-09-21T03:41:00.010Z,95.98
2022-09-21T03:41:59.981Z,95.98
2022-09-21T03:42:59.953Z,95.98
2022-09-21T03:43:59.931Z,96.08
2022-09-21T03:44:59.926Z,96.08
2022-09-21T03:45:59.953Z,96.08
2022-09-21T03:46:59.881Z,95.98
2022-09-21T03:47:59.888Z,95.98
2022-09-21T03:48:59.869Z,95.98
2022-09-21T03:49:59.867Z,95.87
2022-09-21T03:50:59.850Z,95.92
2022-09-21T03:51:59.847Z,95.92
2022-09-21T03:52:59.840Z,95.92
2022-09-21T03:53:59.828Z,95.92
2022-09-21T03:54:59.827Z,95.92
2022-09-21T03:55:59.776Z,96.02
2022-09-21T03:56:59.746Z,96.02
2022-09-21T03:57:59.756Z,96.02
2022-09-21T03:58:59.736Z,96.02
2022-09-21T03:59:59.727Z,96.02
2022-09-21T04:00:59.695Z,96.02
2022-09-21T04:01:59.702Z,96.02
2022-09-21T04:02:59.814Z,96.02
2022-09-21T04:03:59.654Z,96.02
2022-09-21T04:04:59.652Z,96.02
2022-09-21T04:05:59.644Z,96.02
2022-09-21T04:06:59.646Z,96.02
2022-09-21T04:07:59.633Z,96.02
2022-09-21T04:08:59.614Z,96.12
2022-09-21T04:09:59.584Z,96.02
2022-09-21T04:10:59.572Z,96.02
2022-09-21T04:11:59.623Z,96.02
2022-09-21T04:12:59.541Z,96.02
2022-09-21T04:13:59.541Z,96.02
2022-09-21T04:14:59.521Z,96.12
2022-09-21T04:15:59.637Z,96.12
2022-09-21T04:16:59.521Z,96.23
2022-09-21T04:17:59.469Z,96.23
2022-09-21T04:18:59.492Z,96.23
2022-09-21T04:19:59.458Z,96.33
2022-09-21T04:20:59.428Z,96.33
2022-09-21T04:21:59.437Z,96.33
2022-09-21T04:22:59.407Z,96.33
2022-09-21T04:24:00.088Z,96.44
2022-09-21T04:24:59.405Z,96.44
2022-09-21T04:25:59.380Z,96.44
2022-09-21T04:26:59.356Z,96.44
2022-09-21T04:27:59.387Z,96.54
2022-09-21T04:28:59.326Z,96.54
2022-09-21T04:29:59.324Z,96.64
2022-09-21T04:30:59.346Z,96.64
2022-09-21T04:31:59.297Z,96.64
2022-09-21T04:32:59.301Z,96.75
2022-09-21T04:33:59.284Z,96.75
2022-09-21T04:34:59.251Z,96.75
2022-09-21T04:35:59.277Z,96.75
2022-09-21T04:36:59.223Z,96.75
2022-09-21T04:37:59.223Z,96.75
2022-09-21T04:38:59.212Z,96.85
2022-09-21T04:39:59.226Z,96.85
2022-09-21T04:40:59.191Z,96.85
2022-09-21T04:41:59.173Z,96.85
2022-09-21T04:42:59.152Z,96.85
2022-09-21T04:43:59.180Z,96.75
2022-09-21T04:44:59.130Z,96.75
2022-09-21T04:45:59.159Z,96.75
2022-09-21T04:46:59.124Z,96.75
2022-09-21T04:47:59.119Z,96.75
2022-09-21T04:48:59.072Z,96.64
2022-09-21T04:49:59.068Z,96.64
2022-09-21T04:50:59.071Z,96.64
2022-09-21T04:51:59.038Z,96.64
2022-09-21T04:52:59.008Z,96.64
2022-09-21T04:53:59.018Z,96.75
2022-09-21T04:54:59.075Z,96.75
2022-09-21T04:55:58.996Z,96.85
2022-09-21T04:56:58.975Z,96.85
2022-09-21T04:57:58.986Z,96.85
2022-09-21T04:58:58.956Z,96.85
2022-09-21T04:59:58.924Z,96.85
2022-09-21T05:00:58.906Z,96.85
2022-09-21T05:01:58.884Z,96.85
2022-09-21T05:02:58.900Z,96.95
2022-09-21T05:03:58.918Z,96.95
2022-09-21T05:04:59.511Z,96.95
2022-09-21T05:05:58.853Z,97.06
2022-09-21T05:06:58.827Z,97.06
2022-09-21T05:07:58.843Z,97.06
2022-09-21T05:08:58.792Z,97.16
2022-09-21T05:11:25.492Z,97.26
2022-09-21T05:12:26.121Z,97.26
2022-09-21T05:13:25.462Z,97.26
2022-09-21T05:14:25.443Z,97.36
2022-09-21T05:15:25.529Z,97.26
2022-09-21T05:16:25.421Z,97.26
2022-09-21T05:17:25.411Z,97.26
2022-09-21T05:18:25.365Z,97.26
2022-09-21T05:19:25.380Z,97.36
2022-09-21T05:20:25.360Z,97.36
2022-09-21T05:21:25.322Z,97.36
2022-09-21T05:22:25.298Z,97.36
2022-09-21T05:23:25.311Z,97.36
2022-09-21T05:24:25.284Z,97.36
2022-09-21T05:25:25.288Z,97.36
2022-09-21T05:26:25.258Z,97.36
2022-09-21T05:27:25.257Z,97.36
2022-09-21T05:28:25.238Z,97.36
2022-09-21T05:29:25.216Z,97.36
2022-09-21T05:30:25.265Z,97.47
2022-09-21T05:31:25.244Z,97.47
2022-09-21T05:32:25.221Z,97.47
2022-09-21T05:33:25.184Z,97.47
2022-09-21T05:34:25.145Z,97.47
2022-09-21T05:35:25.180Z,97.47
2022-09-21T05:36:25.145Z,97.57
2022-09-21T05:37:25.115Z,97.57
2022-09-21T05:38:25.115Z,97.57
2022-09-21T05:39:25.099Z,97.57
2022-09-21T05:40:25.180Z,97.57
2022-09-21T05:41:25.054Z,97.57
2022-09-21T05:42:25.035Z,97.57
2022-09-21T05:43:25.072Z,97.57
2022-09-21T05:44:25.040Z,97.57
2022-09-21T05:45:25.010Z,97.57
2022-09-21T05:46:25.040Z,97.47
2022-09-21T05:47:25.040Z,97.57
2022-09-21T05:48:24.995Z,97.57
2022-09-21T05:49:24.980Z,97.57
2022-09-21T05:50:24.980Z,97.57
2022-09-21T05:51:24.929Z,97.57
2022-09-21T05:52:24.930Z,97.57
2022-09-21T05:53:24.899Z,97.67
2022-09-21T05:54:24.921Z,97.67
2022-09-21T05:55:24.946Z,97.57
2022-09-21T05:56:24.894Z,97.67
2022-09-21T05:57:28.664Z,97.67
2022-09-21T05:58:25.870Z,97.67
2022-09-21T05:59:24.857Z,97.67
2022-09-21T06:00:24.814Z,97.78
2022-09-21T06:01:24.882Z,97.78
2022-09-21T06:02:24.836Z,97.78
2022-09-21T06:03:24.794Z,97.78
2022-09-21T06:04:24.765Z,97.78
2022-09-21T06:05:24.792Z,97.78
2022-09-21T06:06:24.735Z,97.88
2022-09-21T06:07:24.715Z,97.84
2022-09-21T06:08:24.721Z,97.84
2022-09-21T06:09:24.704Z,97.88
2022-09-21T06:10:24.691Z,97.84
2022-09-21T06:11:24.750Z,97.84
2022-09-21T06:12:24.644Z,97.84
2022-09-21T06:13:24.651Z,97.84
2022-09-21T06:14:24.625Z,97.94
2022-09-21T06:15:24.641Z,97.94
2022-09-21T06:16:24.658Z,97.94
2022-09-21T06:17:24.628Z,98.05
2022-09-21T06:18:24.598Z,97.94
2022-09-21T06:19:24.595Z,98.05
2022-09-21T06:20:24.597Z,98.05
2022-09-21T06:21:24.578Z,98.05
2022-09-21T06:22:24.517Z,98.15
2022-09-21T06:23:24.528Z,98.15
2022-09-21T06:24:25.257Z,98.15
2022-09-21T06:25:24.512Z,98.25
2022-09-21T06:26:24.477Z,98.25
2022-09-21T06:27:24.471Z,98.25
2022-09-21T06:28:24.455Z,98.25
2022-09-21T06:29:24.487Z,98.35
2022-09-21T06:30:24.497Z,98.35
2022-09-21T06:31:24.465Z,98.35
2022-09-21T06:32:24.400Z,98.35
2022-09-21T06:33:24.398Z,98.35
2022-09-21T06:34:24.405Z,98.46
2022-09-21T06:35:24.364Z,98.46
2022-09-21T06:36:24.365Z,98.46
2022-09-21T06:37:24.323Z,98.56
2022-09-21T06:38:24.346Z,98.56
2022-09-21T06:39:24.363Z,98.56
2022-09-21T06:40:24.377Z,98.56
2022-09-21T06:41:24.323Z,98.66
2022-09-21T06:42:24.292Z,98.66
2022-09-21T06:43:24.300Z,98.62
2022-09-21T06:44:24.251Z,98.72
2022-09-21T06:45:24.226Z,98.72
2022-09-21T06:46:24.255Z,98.72
2022-09-21T06:47:24.207Z,98.83
2022-09-21T06:48:24.191Z,98.83
2022-09-21T06:49:24.194Z,98.93
2022-09-21T06:50:24.171Z,98.93
2022-09-21T06:51:24.167Z,98.93
2022-09-21T06:52:24.130Z,98.93
2022-09-21T06:53:24.142Z,99.04
2022-09-21T06:54:24.114Z,99.04
2022-09-21T06:55:24.115Z,99.04
2022-09-21T06:56:24.117Z,99.14
2022-09-21T06:57:24.099Z,99.14
2022-09-21T06:58:24.076Z,99.14
2022-09-21T06:59:24.075Z,99.14
2022-09-21T07:00:24.056Z,99.24
2022-09-21T07:01:24.153Z,99.34
2022-09-21T07:02:24.050Z,99.34
2022-09-21T07:03:24.035Z,99.40
2022-09-21T07:04:25.255Z,99.40
2022-09-21T07:05:23.957Z,99.40
2022-09-21T07:06:23.981Z,99.40
2022-09-21T07:07:23.973Z,99.51
2022-09-21T07:10:24.900Z,99.61
2022-09-21T07:11:23.944Z,99.71
2022-09-21T07:12:23.920Z,99.71
2022-09-21T07:13:23.861Z,99.71
2022-09-21T07:14:23.841Z,99.71
2022-09-21T07:15:23.830Z,99.77
2022-09-21T07:16:23.900Z,99.77
2022-09-21T07:17:23.819Z,99.77
2022-09-21T07:18:23.829Z,99.77
2022-09-21T07:19:23.787Z,99.87
2022-09-21T07:20:23.769Z,99.87
2022-09-21T07:21:23.799Z,99.87
2022-09-21T07:22:23.759Z,99.87
2022-09-21T07:23:23.949Z,99.98
2022-09-21T07:24:23.728Z,99.98
2022-09-21T07:25:23.698Z,99.98
2022-09-21T07:26:23.707Z,99.98
2022-09-21T07:27:23.727Z,99.99
2022-09-21T07:28:23.677Z,99.99
2022-09-21T07:29:23.695Z,99.99
2022-09-21T07:30:23.645Z,99.99
2022-09-21T07:31:23.700Z,99.99
2022-09-21T07:32:23.616Z,99.99
2022-09-21T07:33:23.645Z,99.99
2022-09-21T07:34:23.594Z,99.99
2022-09-21T07:35:23.571Z,99.99
2022-09-21T07:36:23.574Z,99.99
2022-09-21T07:37:23.544Z,99.99
2022-09-21T07:38:23.533Z,99.99
2022-09-21T07:39:23.522Z,99.99
2022-09-21T07:40:25.388Z,99.99
2022-09-21T07:41:23.586Z,99.99
2022-09-21T07:42:23.514Z,99.99
2022-09-21T07:43:23.503Z,99.99
2022-09-21T07:44:23.491Z,99.99
2022-09-21T07:45:23.509Z,99.99
2022-09-21T07:46:23.441Z,99.99
2022-09-21T07:47:23.448Z,99.99
2022-09-21T07:48:23.448Z,99.99
2022-09-21T07:49:23.400Z,99.99
2022-09-21T07:50:23.443Z,99.99
2022-09-21T07:51:23.445Z,99.99
2022-09-21T07:52:23.374Z,99.99
2022-09-21T07:53:23.351Z,99.99
2022-09-21T07:54:23.329Z,99.99
2022-09-21T07:55:23.317Z,99.99
2022-09-21T07:56:23.312Z,99.99
2022-09-21T07:57:23.301Z,99.99
2022-09-21T07:58:23.278Z,99.99
2022-09-21T07:59:23.296Z,99.99
2022-09-21T08:00:23.313Z,99.99
2022-09-21T08:01:23.316Z,99.99
2022-09-21T08:02:23.324Z,99.99
2022-09-21T08:03:23.236Z,99.99
2022-09-21T08:04:23.216Z,99.99
2022-09-21T08:05:23.186Z,99.99
2022-09-21T08:06:23.204Z,99.99
2022-09-21T08:07:23.196Z,99.99
2022-09-21T08:08:23.173Z,99.99
2022-09-21T08:09:23.167Z,99.99
2022-09-21T08:10:23.179Z,99.99
2022-09-21T08:11:23.135Z,99.99
2022-09-21T08:12:23.094Z,99.99
2022-09-21T08:13:23.103Z,99.99
2022-09-21T08:14:26.281Z,99.99
2022-09-21T08:15:46.853Z,99.99
2022-09-21T08:16:24.084Z,99.99
2022-09-21T08:17:23.054Z,99.99
2022-09-21T08:18:23.010Z,99.99
2022-09-21T08:19:23.009Z,99.99
2022-09-21T08:20:23.072Z,99.99
2022-09-21T08:21:23.004Z,99.99
2022-09-21T08:22:22.987Z,99.99
2022-09-21T08:23:22.949Z,99.99
2022-09-21T08:24:22.952Z,99.99
2022-09-21T08:25:22.931Z,99.99
2022-09-21T08:26:22.928Z,99.99
2022-09-21T08:27:25.199Z,99.99
2022-09-21T08:28:22.919Z,99.99
2022-09-21T08:29:22.897Z,99.99
2022-09-21T08:30:22.976Z,99.99
2022-09-21T08:31:22.977Z,99.99
2022-09-21T08:32:46.606Z,99.99
2022-09-21T08:33:28.615Z,99.99
2022-09-21T08:34:23.856Z,99.99
2022-09-21T08:35:22.887Z,99.99
2022-09-21T08:36:22.796Z,99.99
2022-09-21T08:37:22.800Z,99.99
2022-09-21T08:38:22.778Z,99.99
2022-09-21T08:39:22.763Z,99.99
2022-09-21T08:40:22.903Z,99.99
2022-09-21T08:41:22.729Z,99.99
2022-09-21T08:42:22.733Z,99.99
2022-09-21T08:43:22.699Z,99.99
2022-09-21T08:44:22.736Z,99.99
2022-09-21T08:45:22.701Z,99.99
2022-09-21T08:46:22.734Z,99.99
2022-09-21T08:47:22.651Z,99.99
2022-09-21T08:48:26.929Z,99.99
2022-09-21T08:49:23.650Z,99.99
2022-09-21T08:50:22.657Z,99.99
2022-09-21T08:51:22.598Z,99.99
2022-09-21T08:52:22.629Z,99.99
2022-09-21T08:53:22.559Z,99.99
2022-09-21T08:54:22.598Z,99.99
2022-09-21T08:55:22.623Z,99.99
2022-09-21T08:56:22.598Z,99.99
2022-09-21T08:57:22.550Z,99.99
2022-09-21T08:58:22.518Z,99.99
2022-09-21T08:59:22.490Z,99.99
2022-09-21T09:00:22.612Z,99.99
2022-09-21T09:01:22.629Z,99.99
2022-09-21T09:02:22.581Z,99.99
2022-09-21T09:03:22.521Z,99.99
2022-09-21T09:04:22.477Z,99.99
2022-09-21T09:05:22.458Z,99.99
2022-09-21T09:06:26.015Z,99.99
2022-09-21T09:07:22.405Z,99.99
2022-09-21T09:08:22.410Z,99.99
2022-09-21T09:09:22.366Z,99.99
2022-09-21T09:10:22.423Z,99.99
2022-09-21T09:11:22.334Z,99.99
2022-09-21T09:12:22.369Z,99.99
2022-09-21T09:13:22.311Z,99.99
2022-09-21T09:14:22.353Z,99.99
2022-09-21T09:15:22.283Z,99.99
2022-09-21T09:16:22.384Z,99.99
2022-09-21T09:17:22.281Z,99.99
2022-09-21T09:18:22.291Z,99.99
2022-09-21T09:19:22.261Z,99.99
2022-09-21T09:20:22.278Z,99.99
2022-09-21T09:21:28.980Z,99.99
2022-09-21T09:22:23.230Z,99.99
2022-09-21T09:23:22.188Z,99.99
2022-09-21T09:24:22.222Z,99.99
2022-09-21T09:25:22.160Z,99.99
2022-09-21T09:26:22.209Z,99.99
2022-09-21T09:27:22.133Z,99.99
2022-09-21T09:28:22.166Z,99.99
2022-09-21T09:29:22.126Z,99.99
2022-09-21T09:30:22.153Z,99.99
2022-09-21T09:31:22.159Z,99.99
2022-09-21T09:32:22.114Z,99.99
2022-09-21T09:33:22.057Z,99.99
2022-09-21T09:34:22.049Z,99.99
2022-09-21T09:35:22.068Z,99.99
2022-09-21T09:36:40.130Z,99.99
2022-09-21T09:37:23.047Z,99.99
2022-09-21T09:38:22.044Z,99.99
2022-09-21T09:39:21.996Z,99.99
2022-09-21T09:40:22.123Z,99.99
2022-09-21T09:41:22.035Z,99.86
2022-09-21T09:42:21.964Z,99.55
2022-09-21T09:43:21.954Z,99.45
2022-09-21T09:44:21.933Z,99.35
2022-09-21T09:45:24.951Z,99.10
2022-09-21T09:46:21.985Z,98.99
2022-09-21T09:47:21.913Z,98.79
2022-09-21T09:48:21.892Z,98.58
2022-09-21T09:49:22.945Z,98.07
2022-09-21T09:50:21.984Z,97.77
2022-09-21T09:51:21.891Z,97.46
2022-09-21T09:52:21.828Z,96.91
2022-09-21T09:53:21.841Z,96.39
2022-09-21T09:54:21.834Z,95.98
2022-09-21T09:55:21.806Z,95.67
2022-09-21T09:56:21.770Z,95.88
2022-09-21T09:57:21.795Z,95.67
2022-09-21T09:58:21.791Z,95.22
2022-09-21T09:59:21.789Z,94.81
2022-09-21T10:00:21.824Z,94.60
2022-09-21T10:01:21.830Z,94.20
2022-09-21T10:02:21.698Z,93.99
2022-09-21T10:03:21.697Z,92.87
2022-09-21T10:04:21.729Z,90.41
2022-09-21T10:05:21.666Z,90.52
2022-09-21T10:06:21.669Z,91.23
2022-09-21T10:07:21.637Z,91.39
2022-09-21T10:08:21.626Z,92.42
2022-09-21T10:09:21.675Z,92.93
2022-09-21T10:10:21.672Z,93.13
2022-09-21T10:11:21.606Z,93.33
2022-09-21T10:12:21.574Z,92.62
2022-09-21T10:13:21.563Z,91.56
2022-09-21T10:14:21.545Z,91.25
2022-09-21T10:15:21.545Z,91.56
2022-09-21T10:16:21.625Z,91.05
2022-09-21T10:17:21.606Z,91.25
2022-09-21T10:18:21.496Z,89.61
2022-09-21T10:19:21.522Z,85.53
2022-09-21T10:20:21.570Z,83.79
2022-09-21T10:21:21.451Z,85.38
2022-09-21T10:22:21.522Z,85.59
2022-09-21T10:23:21.422Z,85.49
2022-09-21T10:24:21.434Z,87.43
2022-09-21T10:25:21.402Z,88.61
2022-09-21T10:26:21.443Z,88.92
2022-09-21T10:27:21.471Z,89.53
2022-09-21T10:28:21.416Z,89.23
2022-09-21T10:29:21.350Z,86.98
2022-09-21T10:30:21.410Z,87.59
2022-09-21T10:31:21.545Z,85.55
2022-09-21T10:32:21.333Z,83.00
2022-09-21T10:33:21.304Z,80.61
2022-09-21T10:34:21.314Z,80.41
2022-09-21T10:35:21.269Z,80.71
2022-09-21T10:36:21.267Z,83.98
2022-09-21T10:37:21.273Z,85.37
2022-09-21T10:38:22.634Z,85.88
2022-09-21T10:39:21.248Z,86.39
2022-09-21T10:40:21.424Z,85.88
2022-09-21T10:41:21.196Z,86.08
2022-09-21T10:42:21.228Z,85.37
2022-09-21T10:43:21.185Z,86.08
2022-09-21T10:44:21.215Z,85.16
2022-09-21T10:45:21.230Z,82.71
2022-09-21T10:46:21.216Z,82.51
2022-09-21T10:47:21.128Z,84.14
2022-09-21T10:48:21.165Z,81.18
2022-09-21T10:49:21.105Z,80.57
2022-09-21T10:50:21.124Z,79.86
2022-09-21T10:51:21.094Z,81.04
2022-09-21T10:52:21.058Z,83.09
2022-09-21T10:53:21.073Z,83.49
2022-09-21T10:54:21.044Z,84.00
2022-09-21T10:55:21.038Z,85.02
2022-09-21T10:56:21.064Z,82.98
2022-09-21T10:57:21.023Z,83.09
2022-09-21T10:58:20.972Z,84.92
2022-09-21T10:59:20.976Z,83.04
2022-09-21T11:00:20.983Z,80.40
2022-09-21T11:01:21.167Z,79.48
2022-09-21T11:02:20.963Z,78.77
2022-09-21T11:03:20.984Z,79.17
2022-09-21T11:04:20.901Z,81.79
2022-09-21T11:05:20.888Z,83.92
2022-09-21T11:06:20.934Z,82.19
2022-09-21T11:07:20.891Z,80.66
2022-09-21T11:08:20.852Z,81.07
2022-09-21T11:09:20.918Z,82.19
2022-09-21T11:10:20.829Z,82.29
2022-09-21T11:11:20.861Z,82.90
2022-09-21T11:12:20.799Z,83.92
2022-09-21T11:13:20.807Z,83.82
2022-09-21T11:14:20.769Z,83.31
2022-09-21T11:15:20.758Z,82.70
2022-09-21T11:16:20.785Z,82.29
2022-09-21T11:17:20.767Z,82.87
2022-09-21T11:18:20.738Z,81.74
2022-09-21T11:19:20.836Z,77.71
2022-09-21T11:20:20.749Z,78.89
2022-09-21T11:21:20.695Z,79.41
2022-09-21T11:22:20.681Z,79.10
2022-09-21T11:23:20.668Z,79.91
2022-09-21T11:24:20.644Z,77.17
2022-09-21T11:25:20.644Z,77.47
2022-09-21T11:26:20.626Z,80.38
2022-09-21T11:27:20.605Z,79.68
2022-09-21T11:28:20.608Z,78.66
2022-09-21T11:29:20.646Z,80.18
2022-09-21T11:30:20.583Z,79.57
2022-09-21T11:31:20.651Z,80.29
2022-09-21T11:32:20.552Z,80.08
2022-09-21T11:33:20.546Z,79.88
2022-09-21T11:34:20.531Z,80.08
2022-09-21T11:35:20.582Z,79.57
2022-09-21T11:36:20.490Z,80.18
2022-09-21T11:37:20.491Z,78.86
2022-09-21T11:38:20.511Z,76.72
2022-09-21T11:39:20.481Z,74.69
2022-09-21T11:40:20.501Z,72.65
2022-09-21T11:41:20.433Z,73.63
2022-09-21T11:42:20.421Z,76.38
2022-09-21T11:43:23.063Z,73.54
2022-09-21T11:44:20.425Z,75.26
2022-09-21T11:45:20.379Z,76.99
2022-09-21T11:46:20.580Z,75.67
2022-09-21T11:47:20.931Z,75.77
2022-09-21T11:48:20.338Z,78.38
2022-09-21T11:49:20.328Z,77.87
2022-09-21T11:50:31.535Z,78.89
2022-09-21T11:51:21.306Z,74.82
2022-09-21T11:52:20.298Z,70.96
2022-09-21T11:53:20.306Z,71.06
2022-09-21T11:54:20.249Z,73.91
2022-09-21T11:55:20.284Z,74.79
2022-09-21T11:56:20.226Z,74.58
2022-09-21T11:57:20.223Z,70.42
2022-09-21T11:58:20.231Z,69.30
2022-09-21T11:59:20.206Z,71.73
2022-09-21T12:00:20.195Z,74.99
2022-09-21T12:01:20.173Z,75.49
2022-09-21T12:02:20.370Z,75.80
2022-09-21T12:03:20.156Z,75.49
2022-09-21T12:04:20.141Z,75.29
2022-09-21T12:05:20.124Z,74.48
2022-09-21T12:06:20.172Z,76.07
2022-09-21T12:07:20.090Z,75.87
2022-09-21T12:08:20.077Z,76.17
2022-09-21T12:09:20.311Z,73.63
2022-09-21T12:10:20.105Z,73.22
2022-09-21T12:11:20.101Z,75.67
2022-09-21T12:12:20.091Z,72.72
2022-09-21T12:13:20.020Z,70.65
2022-09-21T12:14:20.001Z,70.86
2022-09-21T12:15:20.049Z,70.76
2022-09-21T12:16:20.000Z,69.03
2022-09-21T12:17:20.028Z,68.42
2022-09-21T12:18:19.980Z,68.62
2022-09-21T12:19:19.963Z,69.23
2022-09-21T12:20:19.920Z,68.79
2022-09-21T12:21:19.913Z,69.51
2022-09-21T12:22:19.939Z,70.42
2022-09-21T12:23:19.950Z,72.04
2022-09-21T12:24:19.870Z,72.65
2022-09-21T12:25:19.887Z,70.62
2022-09-21T12:26:19.886Z,67.78
2022-09-21T12:27:19.859Z,68.79
2022-09-21T12:28:19.862Z,70.62
2022-09-21T12:29:19.810Z,70.32
2022-09-21T12:30:19.824Z,70.01
2022-09-21T12:31:19.879Z,71.64
2022-09-21T12:32:19.781Z,70.32
2022-09-21T12:33:19.796Z,72.65
2022-09-21T12:34:19.757Z,70.18
2022-09-21T12:35:19.746Z,70.28
2022-09-21T12:36:19.723Z,68.56
2022-09-21T12:37:19.744Z,69.37
2022-09-21T12:38:19.753Z,73.19
2022-09-21T12:39:19.692Z,69.54
2022-09-21T12:40:19.751Z,70.05
2022-09-21T12:41:19.680Z,71.57
2022-09-21T12:42:19.645Z,64.85
2022-09-21T12:43:19.634Z,64.44
2022-09-21T12:44:19.662Z,65.45
2022-09-21T12:45:19.613Z,66.24
2022-09-21T12:46:19.655Z,67.35
2022-09-21T12:47:19.584Z,65.80
2022-09-21T12:48:19.561Z,62.46
2022-09-21T12:49:19.572Z,64.18
2022-09-21T12:50:19.552Z,64.76
2022-09-21T12:51:19.582Z,64.15
2022-09-21T12:52:19.522Z,65.53
2022-09-21T12:53:19.509Z,64.62
2022-09-21T12:54:19.528Z,62.81
2022-09-21T12:55:19.491Z,60.58